Coral Harbour, Canada
Current Conditions -  °F | °C
As of 10:00 PM on Thursday 18 Dec 2014 (Local Time) from CYZS Reporting Station
Few Clouds Few Clouds  
Wind Chill: -44°   Ceiling: Unl
Heat Index: -22°   Visibility: 15mi
Dew Point: -29°   Wind: 10mph
Humidity: 69%   Direction: 350°N
Pressure: 30.14"   Gusts: NA
Location:  64.14°N, 83.17°W
Report Text: CYZS 190300Z 35009KT 15SM FEW210 M30/M34 A3014 RMK CI1 SLP217
Loading
Personal Weather Stations






























Interactive Weather Map New forecast layout! Learn more

10-Day Weather Forecast

Advertisements
Track Severe Weather on mobile